sensor_id;sensor_type;location;lat;lon;timestamp;P1;durP1;ratioP1;P2;durP2;ratioP2
55150;SDS011;41041;43.162;20.538;2023-12-20T00:01:44;63.15;;;37.15;;
55150;SDS011;41041;43.162;20.538;2023-12-20T00:04:10;63.67;;;37.50;;
55150;SDS011;41041;43.162;20.538;2023-12-20T00:09:40;89.75;;;47.03;;
55150;SDS011;41041;43.162;20.538;2023-12-20T00:12:06;75.97;;;42.40;;
55150;SDS011;41041;43.162;20.538;2023-12-20T00:14:32;85.60;;;45.08;;
55150;SDS011;41041;43.162;20.538;2023-12-20T00:20:20;122.53;;;65.80;;
55150;SDS011;41041;43.162;20.538;2023-12-20T00:22:46;111.75;;;60.60;;
55150;SDS011;41041;43.162;20.538;2023-12-20T00:25:12;100.97;;;53.13;;
55150;SDS011;41041;43.162;20.538;2023-12-20T00:27:38;91.30;;;45.72;;
55150;SDS011;41041;43.162;20.538;2023-12-20T00:30:05;55.97;;;32.00;;
55150;SDS011;41041;43.162;20.538;2023-12-20T00:32:31;50.88;;;29.27;;
55150;SDS011;41041;43.162;20.538;2023-12-20T00:34:57;55.90;;;31.45;;
55150;SDS011;41041;43.162;20.538;2023-12-20T00:37:23;59.92;;;33.05;;
55150;SDS011;41041;43.162;20.538;2023-12-20T00:39:49;63.83;;;35.00;;
55150;SDS011;41041;43.162;20.538;2023-12-20T00:42:15;72.15;;;38.67;;
55150;SDS011;41041;43.162;20.538;2023-12-20T00:44:41;69.95;;;36.92;;
55150;SDS011;41041;43.162;20.538;2023-12-20T00:47:07;66.75;;;36.67;;
55150;SDS011;41041;43.162;20.538;2023-12-20T00:49:33;68.75;;;36.22;;
55150;SDS011;41041;43.162;20.538;2023-12-20T00:51:59;59.70;;;32.17;;
55150;SDS011;41041;43.162;20.538;2023-12-20T00:54:25;60.35;;;30.75;;
55150;SDS011;41041;43.162;20.538;2023-12-20T00:56:52;57.38;;;31.42;;
55150;SDS011;41041;43.162;20.538;2023-12-20T00:59:19;57.88;;;32.75;;
55150;SDS011;41041;43.162;20.538;2023-12-20T01:01:45;55.55;;;31.05;;
55150;SDS011;41041;43.162;20.538;2023-12-20T01:04:11;59.78;;;30.83;;
55150;SDS011;41041;43.162;20.538;2023-12-20T01:06:38;55.33;;;31.55;;
55150;SDS011;41041;43.162;20.538;2023-12-20T01:09:04;69.82;;;37.33;;
55150;SDS011;41041;43.162;20.538;2023-12-20T01:11:30;68.40;;;37.28;;
55150;SDS011;41041;43.162;20.538;2023-12-20T01:13:56;78.13;;;41.35;;
55150;SDS011;41041;43.162;20.538;2023-12-20T01:16:22;63.33;;;33.75;;
55150;SDS011;41041;43.162;20.538;2023-12-20T01:18:48;60.65;;;31.98;;
55150;SDS011;41041;43.162;20.538;2023-12-20T01:21:14;60.92;;;32.05;;
55150;SDS011;41041;43.162;20.538;2023-12-20T01:23:40;51.95;;;27.48;;
55150;SDS011;41041;43.162;20.538;2023-12-20T01:26:06;52.35;;;29.23;;
55150;SDS011;41041;43.162;20.538;2023-12-20T01:28:33;54.97;;;28.15;;
55150;SDS011;41041;43.162;20.538;2023-12-20T01:30:59;45.15;;;25.42;;
55150;SDS011;41041;43.162;20.538;2023-12-20T01:33:25;51.20;;;27.67;;
55150;SDS011;41041;43.162;20.538;2023-12-20T01:38:58;37.28;;;20.73;;
55150;SDS011;41041;43.162;20.538;2023-12-20T01:41:25;30.98;;;17.55;;
55150;SDS011;41041;43.162;20.538;2023-12-20T01:43:51;31.08;;;17.77;;
55150;SDS011;41041;43.162;20.538;2023-12-20T01:46:19;31.85;;;17.60;;
55150;SDS011;41041;43.162;20.538;2023-12-20T01:51:49;37.15;;;19.25;;
55150;SDS011;41041;43.162;20.538;2023-12-20T01:54:16;36.15;;;19.98;;
55150;SDS011;41041;43.162;20.538;2023-12-20T01:56:42;47.72;;;26.08;;
55150;SDS011;41041;43.162;20.538;2023-12-20T01:59:08;51.35;;;28.13;;
55150;SDS011;41041;43.162;20.538;2023-12-20T02:01:35;62.60;;;33.78;;
55150;SDS011;41041;43.162;20.538;2023-12-20T02:04:01;61.30;;;33.33;;
55150;SDS011;41041;43.162;20.538;2023-12-20T02:06:29;63.83;;;34.58;;
55150;SDS011;41041;43.162;20.538;2023-12-20T02:08:58;68.65;;;36.28;;
55150;SDS011;41041;43.162;20.538;2023-12-20T02:11:24;68.93;;;38.78;;
55150;SDS011;41041;43.162;20.538;2023-12-20T02:13:51;71.20;;;38.90;;
55150;SDS011;41041;43.162;20.538;2023-12-20T02:16:17;70.00;;;38.83;;
55150;SDS011;41041;43.162;20.538;2023-12-20T02:18:43;71.68;;;40.60;;
55150;SDS011;41041;43.162;20.538;2023-12-20T02:21:10;68.78;;;39.28;;
55150;SDS011;41041;43.162;20.538;2023-12-20T02:23:36;75.50;;;40.83;;
55150;SDS011;41041;43.162;20.538;2023-12-20T02:26:02;69.88;;;39.13;;
55150;SDS011;41041;43.162;20.538;2023-12-20T02:28:29;68.28;;;38.42;;
55150;SDS011;41041;43.162;20.538;2023-12-20T02:30:55;63.53;;;35.28;;
55150;SDS011;41041;43.162;20.538;2023-12-20T02:33:21;80.47;;;41.35;;
55150;SDS011;41041;43.162;20.538;2023-12-20T02:35:47;71.82;;;39.03;;
55150;SDS011;41041;43.162;20.538;2023-12-20T02:38:13;80.97;;;42.70;;
55150;SDS011;41041;43.162;20.538;2023-12-20T02:40:39;80.75;;;42.80;;
55150;SDS011;41041;43.162;20.538;2023-12-20T02:43:05;73.32;;;40.40;;
55150;SDS011;41041;43.162;20.538;2023-12-20T02:45:32;79.75;;;42.13;;
55150;SDS011;41041;43.162;20.538;2023-12-20T02:47:58;83.25;;;42.03;;
55150;SDS011;41041;43.162;20.538;2023-12-20T02:50:24;84.80;;;43.38;;
55150;SDS011;41041;43.162;20.538;2023-12-20T02:52:50;85.45;;;44.10;;
55150;SDS011;41041;43.162;20.538;2023-12-20T02:55:16;83.18;;;42.22;;
55150;SDS011;41041;43.162;20.538;2023-12-20T02:57:42;87.45;;;43.90;;
55150;SDS011;41041;43.162;20.538;2023-12-20T03:00:09;76.53;;;41.90;;
55150;SDS011;41041;43.162;20.538;2023-12-20T03:02:35;77.20;;;42.33;;
55150;SDS011;41041;43.162;20.538;2023-12-20T03:05:02;69.47;;;38.42;;
55150;SDS011;41041;43.162;20.538;2023-12-20T03:07:28;49.35;;;28.80;;
55150;SDS011;41041;43.162;20.538;2023-12-20T03:09:54;87.45;;;43.85;;
55150;SDS011;41041;43.162;20.538;2023-12-20T03:12:20;65.88;;;33.53;;
55150;SDS011;41041;43.162;20.538;2023-12-20T03:14:47;60.63;;;34.58;;
55150;SDS011;41041;43.162;20.538;2023-12-20T03:17:13;60.22;;;31.45;;
55150;SDS011;41041;43.162;20.538;2023-12-20T03:19:39;59.00;;;33.60;;
55150;SDS011;41041;43.162;20.538;2023-12-20T03:22:05;60.60;;;34.13;;
55150;SDS011;41041;43.162;20.538;2023-12-20T03:24:31;66.57;;;35.72;;
55150;SDS011;41041;43.162;20.538;2023-12-20T03:27:00;70.03;;;37.53;;
55150;SDS011;41041;43.162;20.538;2023-12-20T03:29:26;73.47;;;42.42;;
55150;SDS011;41041;43.162;20.538;2023-12-20T03:31:52;78.40;;;41.03;;
55150;SDS011;41041;43.162;20.538;2023-12-20T03:34:20;79.82;;;42.00;;
55150;SDS011;41041;43.162;20.538;2023-12-20T03:36:46;81.18;;;42.30;;
55150;SDS011;41041;43.162;20.538;2023-12-20T03:39:13;86.68;;;44.60;;
55150;SDS011;41041;43.162;20.538;2023-12-20T03:41:40;114.18;;;52.42;;
55150;SDS011;41041;43.162;20.538;2023-12-20T03:44:06;99.20;;;48.10;;
55150;SDS011;41041;43.162;20.538;2023-12-20T03:46:32;50.30;;;26.08;;
55150;SDS011;41041;43.162;20.538;2023-12-20T03:51:38;46.53;;;24.55;;
55150;SDS011;41041;43.162;20.538;2023-12-20T03:59:01;40.88;;;20.80;;
55150;SDS011;41041;43.162;20.538;2023-12-20T04:01:27;43.15;;;23.92;;
55150;SDS011;41041;43.162;20.538;2023-12-20T04:03:53;48.20;;;25.65;;
55150;SDS011;41041;43.162;20.538;2023-12-20T04:06:19;50.00;;;27.27;;
55150;SDS011;41041;43.162;20.538;2023-12-20T04:08:45;65.22;;;33.42;;
55150;SDS011;41041;43.162;20.538;2023-12-20T04:11:10;73.80;;;41.05;;
55150;SDS011;41041;43.162;20.538;2023-12-20T04:13:36;85.10;;;44.75;;
55150;SDS011;41041;43.162;20.538;2023-12-20T04:16:02;81.60;;;42.65;;
55150;SDS011;41041;43.162;20.538;2023-12-20T04:18:28;76.10;;;38.40;;
55150;SDS011;41041;43.162;20.538;2023-12-20T04:20:57;69.35;;;38.35;;
55150;SDS011;41041;43.162;20.538;2023-12-20T04:23:23;63.55;;;35.22;;
55150;SDS011;41041;43.162;20.538;2023-12-20T04:25:49;58.92;;;32.50;;
55150;SDS011;41041;43.162;20.538;2023-12-20T04:28:15;58.95;;;32.20;;
55150;SDS011;41041;43.162;20.538;2023-12-20T04:30:41;60.08;;;34.00;;
55150;SDS011;41041;43.162;20.538;2023-12-20T04:33:08;59.72;;;32.45;;
55150;SDS011;41041;43.162;20.538;2023-12-20T04:35:34;62.88;;;32.30;;
55150;SDS011;41041;43.162;20.538;2023-12-20T04:38:00;57.90;;;32.05;;
55150;SDS011;41041;43.162;20.538;2023-12-20T04:40:26;70.85;;;36.97;;
55150;SDS011;41041;43.162;20.538;2023-12-20T04:42:51;64.90;;;34.28;;
55150;SDS011;41041;43.162;20.538;2023-12-20T04:45:17;58.72;;;32.53;;
55150;SDS011;41041;43.162;20.538;2023-12-20T04:47:44;55.28;;;31.15;;
55150;SDS011;41041;43.162;20.538;2023-12-20T04:50:14;56.30;;;30.63;;
55150;SDS011;41041;43.162;20.538;2023-12-20T04:52:39;55.17;;;29.45;;
55150;SDS011;41041;43.162;20.538;2023-12-20T04:55:05;60.22;;;30.35;;
55150;SDS011;41041;43.162;20.538;2023-12-20T04:57:31;59.95;;;32.25;;
55150;SDS011;41041;43.162;20.538;2023-12-20T04:59:58;76.15;;;38.60;;
55150;SDS011;41041;43.162;20.538;2023-12-20T05:02:24;75.78;;;39.28;;
55150;SDS011;41041;43.162;20.538;2023-12-20T05:04:50;101.38;;;49.92;;
55150;SDS011;41041;43.162;20.538;2023-12-20T05:07:16;113.00;;;58.65;;
55150;SDS011;41041;43.162;20.538;2023-12-20T05:09:42;120.43;;;59.13;;
55150;SDS011;41041;43.162;20.538;2023-12-20T05:14:53;116.47;;;58.83;;
55150;SDS011;41041;43.162;20.538;2023-12-20T05:17:19;117.80;;;59.95;;
55150;SDS011;41041;43.162;20.538;2023-12-20T05:19:45;119.82;;;60.70;;
55150;SDS011;41041;43.162;20.538;2023-12-20T05:22:11;115.00;;;57.65;;
55150;SDS011;41041;43.162;20.538;2023-12-20T05:24:37;127.43;;;62.28;;
55150;SDS011;41041;43.162;20.538;2023-12-20T05:27:03;114.18;;;57.97;;
55150;SDS011;41041;43.162;20.538;2023-12-20T05:29:29;122.72;;;58.72;;
55150;SDS011;41041;43.162;20.538;2023-12-20T05:31:55;116.18;;;58.13;;
55150;SDS011;41041;43.162;20.538;2023-12-20T05:34:21;144.15;;;67.20;;
55150;SDS011;41041;43.162;20.538;2023-12-20T05:36:47;139.30;;;65.10;;
55150;SDS011;41041;43.162;20.538;2023-12-20T05:39:13;119.25;;;61.05;;
55150;SDS011;41041;43.162;20.538;2023-12-20T05:41:39;122.57;;;63.20;;
55150;SDS011;41041;43.162;20.538;2023-12-20T05:44:05;124.72;;;63.58;;
55150;SDS011;41041;43.162;20.538;2023-12-20T05:46:31;124.05;;;65.18;;
55150;SDS011;41041;43.162;20.538;2023-12-20T05:49:00;114.35;;;59.55;;
55150;SDS011;41041;43.162;20.538;2023-12-20T05:51:26;109.97;;;59.35;;
55150;SDS011;41041;43.162;20.538;2023-12-20T05:53:52;115.72;;;63.03;;
55150;SDS011;41041;43.162;20.538;2023-12-20T05:56:18;118.88;;;63.22;;
55150;SDS011;41041;43.162;20.538;2023-12-20T05:58:59;169.73;;;84.57;;
55150;SDS011;41041;43.162;20.538;2023-12-20T06:01:26;159.20;;;81.88;;
55150;SDS011;41041;43.162;20.538;2023-12-20T06:03:52;129.55;;;66.75;;
55150;SDS011;41041;43.162;20.538;2023-12-20T06:06:20;108.40;;;59.85;;
55150;SDS011;41041;43.162;20.538;2023-12-20T06:08:46;105.18;;;58.60;;
55150;SDS011;41041;43.162;20.538;2023-12-20T06:11:12;109.50;;;59.33;;
55150;SDS011;41041;43.162;20.538;2023-12-20T06:13:38;107.65;;;60.17;;
55150;SDS011;41041;43.162;20.538;2023-12-20T06:16:07;102.88;;;55.00;;
55150;SDS011;41041;43.162;20.538;2023-12-20T06:18:34;105.15;;;57.40;;
55150;SDS011;41041;43.162;20.538;2023-12-20T06:21:01;109.90;;;59.90;;
55150;SDS011;41041;43.162;20.538;2023-12-20T06:23:27;107.80;;;59.45;;
55150;SDS011;41041;43.162;20.538;2023-12-20T06:25:54;101.53;;;54.65;;
55150;SDS011;41041;43.162;20.538;2023-12-20T06:28:20;103.22;;;55.10;;
55150;SDS011;41041;43.162;20.538;2023-12-20T06:30:46;93.50;;;51.47;;
55150;SDS011;41041;43.162;20.538;2023-12-20T06:33:14;93.85;;;51.15;;
55150;SDS011;41041;43.162;20.538;2023-12-20T06:35:40;94.25;;;43.95;;
55150;SDS011;41041;43.162;20.538;2023-12-20T06:38:06;99.10;;;52.38;;
55150;SDS011;41041;43.162;20.538;2023-12-20T06:40:33;91.43;;;51.42;;
55150;SDS011;41041;43.162;20.538;2023-12-20T06:42:59;103.70;;;54.65;;
55150;SDS011;41041;43.162;20.538;2023-12-20T06:45:25;101.88;;;56.95;;
55150;SDS011;41041;43.162;20.538;2023-12-20T06:47:52;110.63;;;59.33;;
55150;SDS011;41041;43.162;20.538;2023-12-20T06:50:19;117.28;;;64.20;;
55150;SDS011;41041;43.162;20.538;2023-12-20T06:52:45;101.35;;;51.55;;
55150;SDS011;41041;43.162;20.538;2023-12-20T06:55:11;133.20;;;67.63;;
55150;SDS011;41041;43.162;20.538;2023-12-20T06:57:38;148.82;;;73.95;;
55150;SDS011;41041;43.162;20.538;2023-12-20T07:00:05;135.95;;;69.85;;
55150;SDS011;41041;43.162;20.538;2023-12-20T07:02:31;148.93;;;76.82;;
55150;SDS011;41041;43.162;20.538;2023-12-20T07:04:57;136.95;;;70.20;;
55150;SDS011;41041;43.162;20.538;2023-12-20T07:07:23;120.50;;;61.67;;
55150;SDS011;41041;43.162;20.538;2023-12-20T07:09:49;120.65;;;58.97;;
55150;SDS011;41041;43.162;20.538;2023-12-20T07:12:22;122.85;;;62.45;;
55150;SDS011;41041;43.162;20.538;2023-12-20T07:14:49;125.75;;;66.68;;
55150;SDS011;41041;43.162;20.538;2023-12-20T07:17:15;129.13;;;72.65;;
55150;SDS011;41041;43.162;20.538;2023-12-20T07:19:41;128.95;;;71.25;;
55150;SDS011;41041;43.162;20.538;2023-12-20T07:22:07;134.57;;;73.15;;
55150;SDS011;41041;43.162;20.538;2023-12-20T07:24:34;156.05;;;84.60;;
55150;SDS011;41041;43.162;20.538;2023-12-20T07:27:00;131.63;;;74.88;;
55150;SDS011;41041;43.162;20.538;2023-12-20T07:29:26;141.13;;;76.70;;
55150;SDS011;41041;43.162;20.538;2023-12-20T07:31:53;112.20;;;58.63;;
55150;SDS011;41041;43.162;20.538;2023-12-20T07:36:49;169.00;;;95.00;;
55150;SDS011;41041;43.162;20.538;2023-12-20T07:39:15;145.00;;;73.80;;
55150;SDS011;41041;43.162;20.538;2023-12-20T07:41:43;127.25;;;65.65;;
55150;SDS011;41041;43.162;20.538;2023-12-20T07:44:09;115.82;;;61.65;;
55150;SDS011;41041;43.162;20.538;2023-12-20T07:46:36;104.45;;;54.80;;
55150;SDS011;41041;43.162;20.538;2023-12-20T07:51:33;130.23;;;67.32;;
55150;SDS011;41041;43.162;20.538;2023-12-20T07:53:59;146.68;;;80.32;;
55150;SDS011;41041;43.162;20.538;2023-12-20T07:59:05;188.88;;;109.72;;
55150;SDS011;41041;43.162;20.538;2023-12-20T08:01:31;184.05;;;109.93;;
55150;SDS011;41041;43.162;20.538;2023-12-20T08:03:58;193.60;;;112.32;;
55150;SDS011;41041;43.162;20.538;2023-12-20T08:06:24;248.77;;;141.48;;
55150;SDS011;41041;43.162;20.538;2023-12-20T08:08:50;230.10;;;133.00;;
55150;SDS011;41041;43.162;20.538;2023-12-20T08:13:50;234.70;;;136.18;;
55150;SDS011;41041;43.162;20.538;2023-12-20T08:16:16;280.52;;;166.65;;
55150;SDS011;41041;43.162;20.538;2023-12-20T08:21:21;232.55;;;134.90;;
55150;SDS011;41041;43.162;20.538;2023-12-20T08:23:47;210.05;;;119.28;;
55150;SDS011;41041;43.162;20.538;2023-12-20T08:26:13;214.55;;;124.45;;
55150;SDS011;41041;43.162;20.538;2023-12-20T08:28:39;234.38;;;132.07;;
55150;SDS011;41041;43.162;20.538;2023-12-20T08:31:05;238.00;;;139.20;;
55150;SDS011;41041;43.162;20.538;2023-12-20T08:33:30;249.13;;;144.38;;
55150;SDS011;41041;43.162;20.538;2023-12-20T08:35:56;271.75;;;153.00;;
55150;SDS011;41041;43.162;20.538;2023-12-20T08:38:22;272.00;;;152.30;;
55150;SDS011;41041;43.162;20.538;2023-12-20T08:40:48;255.98;;;146.63;;
55150;SDS011;41041;43.162;20.538;2023-12-20T08:43:14;237.95;;;138.07;;
55150;SDS011;41041;43.162;20.538;2023-12-20T08:45:40;261.73;;;147.30;;
55150;SDS011;41041;43.162;20.538;2023-12-20T08:48:05;263.33;;;153.50;;
55150;SDS011;41041;43.162;20.538;2023-12-20T08:50:32;280.95;;;170.82;;
55150;SDS011;41041;43.162;20.538;2023-12-20T08:52:57;272.73;;;166.68;;
55150;SDS011;41041;43.162;20.538;2023-12-20T08:55:23;279.00;;;168.15;;
55150;SDS011;41041;43.162;20.538;2023-12-20T08:57:49;298.25;;;178.85;;
55150;SDS011;41041;43.162;20.538;2023-12-20T09:00:15;293.95;;;178.65;;
55150;SDS011;41041;43.162;20.538;2023-12-20T09:02:41;295.52;;;171.82;;
55150;SDS011;41041;43.162;20.538;2023-12-20T09:05:07;297.65;;;185.10;;
55150;SDS011;41041;43.162;20.538;2023-12-20T09:07:33;279.40;;;167.27;;
55150;SDS011;41041;43.162;20.538;2023-12-20T09:09:59;278.90;;;170.10;;
55150;SDS011;41041;43.162;20.538;2023-12-20T09:12:25;295.05;;;181.82;;
55150;SDS011;41041;43.162;20.538;2023-12-20T09:14:51;286.88;;;174.05;;
55150;SDS011;41041;43.162;20.538;2023-12-20T09:17:18;257.05;;;149.40;;
55150;SDS011;41041;43.162;20.538;2023-12-20T09:19:45;217.02;;;128.35;;
55150;SDS011;41041;43.162;20.538;2023-12-20T09:22:11;210.13;;;125.70;;
55150;SDS011;41041;43.162;20.538;2023-12-20T09:24:38;179.52;;;110.95;;
55150;SDS011;41041;43.162;20.538;2023-12-20T09:27:04;194.05;;;120.53;;
55150;SDS011;41041;43.162;20.538;2023-12-20T09:29:31;192.32;;;118.70;;
55150;SDS011;41041;43.162;20.538;2023-12-20T09:31:57;208.85;;;127.22;;
55150;SDS011;41041;43.162;20.538;2023-12-20T09:34:23;217.48;;;138.15;;
55150;SDS011;41041;43.162;20.538;2023-12-20T09:36:50;224.07;;;136.50;;
55150;SDS011;41041;43.162;20.538;2023-12-20T09:42:31;235.38;;;146.20;;
55150;SDS011;41041;43.162;20.538;2023-12-20T09:45:01;217.32;;;133.40;;
55150;SDS011;41041;43.162;20.538;2023-12-20T09:47:28;182.50;;;114.85;;
55150;SDS011;41041;43.162;20.538;2023-12-20T09:49:59;182.68;;;113.03;;
55150;SDS011;41041;43.162;20.538;2023-12-20T09:52:25;213.10;;;126.60;;
55150;SDS011;41041;43.162;20.538;2023-12-20T09:54:52;216.98;;;130.07;;
55150;SDS011;41041;43.162;20.538;2023-12-20T09:57:20;200.40;;;124.43;;
55150;SDS011;41041;43.162;20.538;2023-12-20T09:59:46;224.48;;;134.27;;
55150;SDS011;41041;43.162;20.538;2023-12-20T10:02:12;223.80;;;133.25;;
55150;SDS011;41041;43.162;20.538;2023-12-20T10:04:43;222.80;;;132.32;;
55150;SDS011;41041;43.162;20.538;2023-12-20T10:07:12;214.00;;;130.68;;
55150;SDS011;41041;43.162;20.538;2023-12-20T10:09:38;241.07;;;152.68;;
55150;SDS011;41041;43.162;20.538;2023-12-20T10:12:04;203.45;;;127.95;;
55150;SDS011;41041;43.162;20.538;2023-12-20T10:14:32;207.43;;;122.50;;
55150;SDS011;41041;43.162;20.538;2023-12-20T10:17:04;168.40;;;103.93;;
55150;SDS011;41041;43.162;20.538;2023-12-20T10:19:32;150.25;;;93.43;;
55150;SDS011;41041;43.162;20.538;2023-12-20T10:22:03;157.52;;;98.47;;
55150;SDS011;41041;43.162;20.538;2023-12-20T10:24:30;163.63;;;104.03;;
55150;SDS011;41041;43.162;20.538;2023-12-20T10:27:06;149.75;;;97.15;;
55150;SDS011;41041;43.162;20.538;2023-12-20T10:29:35;157.90;;;99.40;;
55150;SDS011;41041;43.162;20.538;2023-12-20T10:34:47;141.68;;;88.43;;
55150;SDS011;41041;43.162;20.538;2023-12-20T10:37:13;186.15;;;103.80;;
55150;SDS011;41041;43.162;20.538;2023-12-20T10:39:38;150.77;;;97.30;;
55150;SDS011;41041;43.162;20.538;2023-12-20T10:42:06;128.68;;;83.30;;
55150;SDS011;41041;43.162;20.538;2023-12-20T10:44:32;116.38;;;73.43;;
55150;SDS011;41041;43.162;20.538;2023-12-20T10:46:58;103.13;;;62.40;;
55150;SDS011;41041;43.162;20.538;2023-12-20T10:49:41;97.82;;;61.83;;
55150;SDS011;41041;43.162;20.538;2023-12-20T10:52:07;98.38;;;63.63;;
55150;SDS011;41041;43.162;20.538;2023-12-20T10:54:34;116.22;;;73.20;;
55150;SDS011;41041;43.162;20.538;2023-12-20T10:56:59;122.00;;;73.60;;
55150;SDS011;41041;43.162;20.538;2023-12-20T10:59:27;112.22;;;69.55;;
55150;SDS011;41041;43.162;20.538;2023-12-20T11:01:58;461.63;;;192.65;;
55150;SDS011;41041;43.162;20.538;2023-12-20T11:04:31;130.32;;;79.75;;
55150;SDS011;41041;43.162;20.538;2023-12-20T11:07:23;142.23;;;89.32;;
55150;SDS011;41041;43.162;20.538;2023-12-20T11:09:55;124.68;;;74.70;;
55150;SDS011;41041;43.162;20.538;2023-12-20T11:15:19;122.60;;;74.63;;
55150;SDS011;41041;43.162;20.538;2023-12-20T11:17:47;127.75;;;75.32;;
55150;SDS011;41041;43.162;20.538;2023-12-20T11:20:21;136.85;;;74.35;;
55150;SDS011;41041;43.162;20.538;2023-12-20T11:22:54;143.93;;;69.20;;
55150;SDS011;41041;43.162;20.538;2023-12-20T11:25:21;114.25;;;60.45;;
55150;SDS011;41041;43.162;20.538;2023-12-20T11:31:09;93.82;;;55.22;;
55150;SDS011;41041;43.162;20.538;2023-12-20T11:33:39;140.68;;;67.95;;
55150;SDS011;41041;43.162;20.538;2023-12-20T11:36:14;167.80;;;74.55;;
55150;SDS011;41041;43.162;20.538;2023-12-20T11:42:06;115.55;;;58.58;;
55150;SDS011;41041;43.162;20.538;2023-12-20T11:44:32;120.50;;;56.03;;
55150;SDS011;41041;43.162;20.538;2023-12-20T11:46:58;123.13;;;57.83;;
55150;SDS011;41041;43.162;20.538;2023-12-20T11:49:27;127.18;;;59.67;;
55150;SDS011;41041;43.162;20.538;2023-12-20T11:54:59;90.43;;;47.78;;
55150;SDS011;41041;43.162;20.538;2023-12-20T12:00:48;54.28;;;32.80;;
55150;SDS011;41041;43.162;20.538;2023-12-20T12:03:15;55.85;;;32.60;;
55150;SDS011;41041;43.162;20.538;2023-12-20T12:05:41;62.90;;;37.22;;
55150;SDS011;41041;43.162;20.538;2023-12-20T12:08:06;69.07;;;38.03;;
55150;SDS011;41041;43.162;20.538;2023-12-20T12:13:55;147.23;;;57.25;;
55150;SDS011;41041;43.162;20.538;2023-12-20T12:19:44;62.03;;;36.42;;
55150;SDS011;41041;43.162;20.538;2023-12-20T12:25:35;54.95;;;33.83;;
55150;SDS011;41041;43.162;20.538;2023-12-20T12:31:28;66.45;;;35.67;;
55150;SDS011;41041;43.162;20.538;2023-12-20T12:33:53;63.88;;;33.97;;
55150;SDS011;41041;43.162;20.538;2023-12-20T12:36:19;45.78;;;28.30;;
55150;SDS011;41041;43.162;20.538;2023-12-20T12:42:07;71.15;;;34.90;;
55150;SDS011;41041;43.162;20.538;2023-12-20T12:44:33;51.22;;;30.52;;
55150;SDS011;41041;43.162;20.538;2023-12-20T12:46:58;64.75;;;33.33;;
55150;SDS011;41041;43.162;20.538;2023-12-20T12:49:24;51.05;;;28.50;;
55150;SDS011;41041;43.162;20.538;2023-12-20T12:51:50;48.30;;;28.75;;
55150;SDS011;41041;43.162;20.538;2023-12-20T12:54:16;58.85;;;30.17;;
55150;SDS011;41041;43.162;20.538;2023-12-20T12:59:39;135.15;;;72.30;;
55150;SDS011;41041;43.162;20.538;2023-12-20T13:02:05;129.63;;;68.68;;
55150;SDS011;41041;43.162;20.538;2023-12-20T13:04:30;104.05;;;54.45;;
55150;SDS011;41041;43.162;20.538;2023-12-20T13:06:56;77.80;;;43.47;;
55150;SDS011;41041;43.162;20.538;2023-12-20T13:12:49;89.13;;;48.55;;
55150;SDS011;41041;43.162;20.538;2023-12-20T13:18:38;95.65;;;53.42;;
55150;SDS011;41041;43.162;20.538;2023-12-20T13:21:07;122.28;;;64.25;;
55150;SDS011;41041;43.162;20.538;2023-12-20T13:23:34;103.93;;;59.28;;
55150;SDS011;41041;43.162;20.538;2023-12-20T13:26:01;88.53;;;50.00;;
55150;SDS011;41041;43.162;20.538;2023-12-20T13:38:33;99.53;;;56.38;;
55150;SDS011;41041;43.162;20.538;2023-12-20T13:40:59;90.30;;;52.15;;
55150;SDS011;41041;43.162;20.538;2023-12-20T13:43:25;91.85;;;52.53;;
55150;SDS011;41041;43.162;20.538;2023-12-20T13:45:51;82.07;;;51.25;;
55150;SDS011;41041;43.162;20.538;2023-12-20T13:48:17;85.40;;;50.72;;
55150;SDS011;41041;43.162;20.538;2023-12-20T13:50:43;93.97;;;53.72;;
55150;SDS011;41041;43.162;20.538;2023-12-20T13:53:09;88.60;;;51.42;;
55150;SDS011;41041;43.162;20.538;2023-12-20T13:55:36;89.70;;;52.08;;
55150;SDS011;41041;43.162;20.538;2023-12-20T13:58:02;83.57;;;46.85;;
55150;SDS011;41041;43.162;20.538;2023-12-20T14:00:28;73.15;;;45.05;;
55150;SDS011;41041;43.162;20.538;2023-12-20T14:02:53;74.80;;;44.80;;
55150;SDS011;41041;43.162;20.538;2023-12-20T14:05:19;99.53;;;56.22;;
55150;SDS011;41041;43.162;20.538;2023-12-20T14:11:10;90.45;;;54.88;;
55150;SDS011;41041;43.162;20.538;2023-12-20T14:19:50;87.47;;;52.10;;
55150;SDS011;41041;43.162;20.538;2023-12-20T14:22:16;93.10;;;50.05;;
55150;SDS011;41041;43.162;20.538;2023-12-20T14:24:42;85.65;;;49.55;;
55150;SDS011;41041;43.162;20.538;2023-12-20T14:27:09;74.00;;;45.63;;
55150;SDS011;41041;43.162;20.538;2023-12-20T14:29:35;98.72;;;56.95;;
55150;SDS011;41041;43.162;20.538;2023-12-20T14:32:02;103.13;;;60.00;;
55150;SDS011;41041;43.162;20.538;2023-12-20T14:34:29;103.18;;;60.63;;
55150;SDS011;41041;43.162;20.538;2023-12-20T14:36:55;116.53;;;65.80;;
55150;SDS011;41041;43.162;20.538;2023-12-20T14:42:09;125.50;;;70.57;;
55150;SDS011;41041;43.162;20.538;2023-12-20T14:47:23;132.10;;;71.38;;
55150;SDS011;41041;43.162;20.538;2023-12-20T14:49:50;143.63;;;79.07;;
55150;SDS011;41041;43.162;20.538;2023-12-20T14:52:17;167.20;;;88.10;;
55150;SDS011;41041;43.162;20.538;2023-12-20T14:54:55;165.27;;;90.05;;
55150;SDS011;41041;43.162;20.538;2023-12-20T14:57:20;179.48;;;99.70;;
55150;SDS011;41041;43.162;20.538;2023-12-20T15:02:59;407.73;;;189.65;;
55150;SDS011;41041;43.162;20.538;2023-12-20T15:05:25;297.58;;;137.73;;
55150;SDS011;41041;43.162;20.538;2023-12-20T15:07:56;160.15;;;91.93;;
55150;SDS011;41041;43.162;20.538;2023-12-20T15:10:22;117.43;;;68.28;;
55150;SDS011;41041;43.162;20.538;2023-12-20T15:12:50;135.55;;;74.50;;
55150;SDS011;41041;43.162;20.538;2023-12-20T15:15:15;105.10;;;62.17;;
55150;SDS011;41041;43.162;20.538;2023-12-20T15:17:41;103.00;;;60.17;;
55150;SDS011;41041;43.162;20.538;2023-12-20T15:20:08;89.55;;;53.85;;
55150;SDS011;41041;43.162;20.538;2023-12-20T15:22:37;106.15;;;59.85;;
55150;SDS011;41041;43.162;20.538;2023-12-20T15:25:04;110.50;;;62.60;;
55150;SDS011;41041;43.162;20.538;2023-12-20T15:27:33;114.20;;;69.07;;
55150;SDS011;41041;43.162;20.538;2023-12-20T15:30:01;119.97;;;69.32;;
55150;SDS011;41041;43.162;20.538;2023-12-20T15:32:27;268.27;;;111.32;;
55150;SDS011;41041;43.162;20.538;2023-12-20T15:34:53;179.70;;;85.80;;
55150;SDS011;41041;43.162;20.538;2023-12-20T15:37:19;148.20;;;77.03;;
55150;SDS011;41041;43.162;20.538;2023-12-20T15:39:45;145.02;;;79.57;;
55150;SDS011;41041;43.162;20.538;2023-12-20T15:42:11;134.20;;;77.72;;
55150;SDS011;41041;43.162;20.538;2023-12-20T15:44:37;146.98;;;80.82;;
55150;SDS011;41041;43.162;20.538;2023-12-20T15:47:03;152.13;;;82.97;;
55150;SDS011;41041;43.162;20.538;2023-12-20T15:49:29;137.60;;;72.93;;
55150;SDS011;41041;43.162;20.538;2023-12-20T15:51:55;135.88;;;68.18;;